sensor_id;sensor_type;location;lat;lon;timestamp;pressure;altitude;pressure_sealevel;temperature;humidity
6532;BME280;3299;42.004;24.868;2023-11-19T00:00:19;97881.69;;;7.42;64.78
6532;BME280;3299;42.004;24.868;2023-11-19T00:02:44;97845.09;;;7.24;64.91
6532;BME280;3299;42.004;24.868;2023-11-19T00:05:10;97860.16;;;7.30;65.17
6532;BME280;3299;42.004;24.868;2023-11-19T00:07:39;97787.38;;;6.89;65.44
6532;BME280;3299;42.004;24.868;2023-11-19T00:10:08;97858.53;;;7.42;65.00
6532;BME280;3299;42.004;24.868;2023-11-19T00:12:35;97838.09;;;7.26;64.87
6532;BME280;3299;42.004;24.868;2023-11-19T00:15:01;97823.78;;;7.22;64.68
6532;BME280;3299;42.004;24.868;2023-11-19T00:17:26;97795.75;;;7.05;64.77
6532;BME280;3299;42.004;24.868;2023-11-19T00:19:52;97878.22;;;7.55;64.59
6532;BME280;3299;42.004;24.868;2023-11-19T00:22:17;97810.16;;;7.08;64.76
6532;BME280;3299;42.004;24.868;2023-11-19T00:24:43;97863.13;;;7.37;64.85
6532;BME280;3299;42.004;24.868;2023-11-19T00:27:13;97857.91;;;7.38;64.58
6532;BME280;3299;42.004;24.868;2023-11-19T00:29:39;97804.59;;;7.01;65.14
6532;BME280;3299;42.004;24.868;2023-11-19T00:32:04;97805.84;;;7.08;65.11
6532;BME280;3299;42.004;24.868;2023-11-19T00:34:30;97804.38;;;7.04;65.44
6532;BME280;3299;42.004;24.868;2023-11-19T00:36:56;97875.69;;;7.41;65.23
6532;BME280;3299;42.004;24.868;2023-11-19T00:39:22;97914.34;;;7.54;65.29
6532;BME280;3299;42.004;24.868;2023-11-19T00:41:47;97849.13;;;7.28;65.28
6532;BME280;3299;42.004;24.868;2023-11-19T00:44:13;97825.78;;;7.05;65.18
6532;BME280;3299;42.004;24.868;2023-11-19T00:46:39;97901.03;;;7.35;65.22
6532;BME280;3299;42.004;24.868;2023-11-19T00:49:05;97820.91;;;7.00;65.33
6532;BME280;3299;42.004;24.868;2023-11-19T00:51:31;97875.97;;;7.24;65.26
6532;BME280;3299;42.004;24.868;2023-11-19T00:53:59;97871.19;;;7.18;65.51
6532;BME280;3299;42.004;24.868;2023-11-19T00:56:26;97826.66;;;6.91;65.84
6532;BME280;3299;42.004;24.868;2023-11-19T00:58:51;97931.50;;;7.41;66.51
6532;BME280;3299;42.004;24.868;2023-11-19T01:01:17;97905.53;;;7.31;66.69
6532;BME280;3299;42.004;24.868;2023-11-19T01:03:42;97882.22;;;7.20;66.55
6532;BME280;3299;42.004;24.868;2023-11-19T01:06:08;97919.19;;;7.46;66.76
6532;BME280;3299;42.004;24.868;2023-11-19T01:08:33;97864.25;;;7.06;67.27
6532;BME280;3299;42.004;24.868;2023-11-19T01:11:01;97905.06;;;7.39;67.07
6532;BME280;3299;42.004;24.868;2023-11-19T01:13:28;97927.63;;;7.48;66.84
6532;BME280;3299;42.004;24.868;2023-11-19T01:15:54;97870.06;;;7.10;66.75
6532;BME280;3299;42.004;24.868;2023-11-19T01:18:21;97893.31;;;7.08;66.42
6532;BME280;3299;42.004;24.868;2023-11-19T01:20:47;97918.41;;;7.31;66.97
6532;BME280;3299;42.004;24.868;2023-11-19T01:23:12;97890.44;;;7.13;67.38
6532;BME280;3299;42.004;24.868;2023-11-19T01:25:38;97872.72;;;7.08;67.19
6532;BME280;3299;42.004;24.868;2023-11-19T01:28:04;97879.59;;;7.08;66.71
6532;BME280;3299;42.004;24.868;2023-11-19T01:30:31;97853.94;;;6.94;66.46
6532;BME280;3299;42.004;24.868;2023-11-19T01:33:16;97863.22;;;6.96;66.23
6532;BME280;3299;42.004;24.868;2023-11-19T01:35:43;97847.78;;;6.96;66.24
6532;BME280;3299;42.004;24.868;2023-11-19T01:38:09;97882.41;;;7.17;66.01
6532;BME280;3299;42.004;24.868;2023-11-19T01:40:35;97827.53;;;6.78;65.93
6532;BME280;3299;42.004;24.868;2023-11-19T01:43:04;97952.34;;;7.50;66.13
6532;BME280;3299;42.004;24.868;2023-11-19T01:45:37;97872.50;;;7.11;66.04
6532;BME280;3299;42.004;24.868;2023-11-19T01:48:05;97885.34;;;7.25;66.32
6532;BME280;3299;42.004;24.868;2023-11-19T01:50:31;97843.88;;;7.03;66.42
6532;BME280;3299;42.004;24.868;2023-11-19T01:52:57;97881.63;;;7.29;66.23
6532;BME280;3299;42.004;24.868;2023-11-19T01:55:24;97825.88;;;7.03;66.26
6532;BME280;3299;42.004;24.868;2023-11-19T01:57:51;97821.66;;;7.02;66.54
6532;BME280;3299;42.004;24.868;2023-11-19T02:00:18;97852.38;;;7.18;66.71
6532;BME280;3299;42.004;24.868;2023-11-19T02:02:46;97912.81;;;7.51;66.74
6532;BME280;3299;42.004;24.868;2023-11-19T02:05:12;97864.63;;;7.14;67.01
6532;BME280;3299;42.004;24.868;2023-11-19T02:07:41;97874.06;;;7.14;67.01
6532;BME280;3299;42.004;24.868;2023-11-19T02:10:07;97868.44;;;7.21;67.33
6532;BME280;3299;42.004;24.868;2023-11-19T02:12:33;97882.03;;;7.23;67.36
6532;BME280;3299;42.004;24.868;2023-11-19T02:15:02;97874.84;;;7.28;67.29
6532;BME280;3299;42.004;24.868;2023-11-19T02:17:31;97911.34;;;7.47;67.34
6532;BME280;3299;42.004;24.868;2023-11-19T02:19:57;97836.75;;;6.94;67.34
6532;BME280;3299;42.004;24.868;2023-11-19T02:22:23;97916.25;;;7.38;67.52
6532;BME280;3299;42.004;24.868;2023-11-19T02:24:51;97870.16;;;7.08;67.46
6532;BME280;3299;42.004;24.868;2023-11-19T02:29:51;97901.66;;;7.38;67.97
6532;BME280;3299;42.004;24.868;2023-11-19T02:32:17;97879.31;;;7.12;68.24
6532;BME280;3299;42.004;24.868;2023-11-19T02:34:42;97936.66;;;7.41;68.36
6532;BME280;3299;42.004;24.868;2023-11-19T02:37:07;97893.25;;;7.22;68.37
6532;BME280;3299;42.004;24.868;2023-11-19T02:39:33;97939.78;;;7.46;68.26
6532;BME280;3299;42.004;24.868;2023-11-19T02:41:58;97885.28;;;7.13;68.04
6532;BME280;3299;42.004;24.868;2023-11-19T02:44:25;97877.00;;;6.95;68.43
6532;BME280;3299;42.004;24.868;2023-11-19T02:46:53;97887.13;;;7.11;68.70
6532;BME280;3299;42.004;24.868;2023-11-19T02:49:19;97849.28;;;6.86;68.71
6532;BME280;3299;42.004;24.868;2023-11-19T02:51:44;97870.41;;;6.77;67.83
6532;BME280;3299;42.004;24.868;2023-11-19T02:54:09;97890.19;;;7.03;68.33
6532;BME280;3299;42.004;24.868;2023-11-19T02:56:35;97859.72;;;6.83;68.00
6532;BME280;3299;42.004;24.868;2023-11-19T02:59:02;97942.50;;;7.30;68.21
6532;BME280;3299;42.004;24.868;2023-11-19T03:01:39;97896.00;;;6.93;68.23
6532;BME280;3299;42.004;24.868;2023-11-19T03:04:09;97954.44;;;7.31;68.51
6532;BME280;3299;42.004;24.868;2023-11-19T03:06:37;97875.34;;;6.80;67.48
6532;BME280;3299;42.004;24.868;2023-11-19T03:09:03;97945.97;;;7.29;68.24
6532;BME280;3299;42.004;24.868;2023-11-19T03:11:33;97930.00;;;7.24;67.92
6532;BME280;3299;42.004;24.868;2023-11-19T03:13:58;97934.56;;;7.33;67.91
6532;BME280;3299;42.004;24.868;2023-11-19T03:16:24;97842.13;;;6.77;67.63
6532;BME280;3299;42.004;24.868;2023-11-19T03:18:49;97927.63;;;7.21;67.44
6532;BME280;3299;42.004;24.868;2023-11-19T03:21:15;97932.81;;;7.34;67.13
6532;BME280;3299;42.004;24.868;2023-11-19T03:23:41;97837.44;;;6.84;66.38
6532;BME280;3299;42.004;24.868;2023-11-19T03:26:06;97787.69;;;6.44;66.63
6532;BME280;3299;42.004;24.868;2023-11-19T03:28:33;97961.13;;;7.34;66.67
6532;BME280;3299;42.004;24.868;2023-11-19T03:30:58;97942.50;;;7.16;66.99
6532;BME280;3299;42.004;24.868;2023-11-19T03:33:24;97906.00;;;6.97;67.19
6532;BME280;3299;42.004;24.868;2023-11-19T03:35:51;97912.47;;;7.17;66.90
6532;BME280;3299;42.004;24.868;2023-11-19T03:38:17;97908.72;;;7.08;67.27
6532;BME280;3299;42.004;24.868;2023-11-19T03:40:42;97859.22;;;6.78;67.37
6532;BME280;3299;42.004;24.868;2023-11-19T03:43:08;97814.25;;;6.57;67.61
6532;BME280;3299;42.004;24.868;2023-11-19T03:45:34;97833.91;;;6.72;67.50
6532;BME280;3299;42.004;24.868;2023-11-19T03:48:01;97875.09;;;6.71;67.13
6532;BME280;3299;42.004;24.868;2023-11-19T03:50:26;97892.84;;;7.02;67.43
6532;BME280;3299;42.004;24.868;2023-11-19T03:52:52;97812.03;;;6.65;67.71
6532;BME280;3299;42.004;24.868;2023-11-19T03:55:17;97872.78;;;6.80;67.76
6532;BME280;3299;42.004;24.868;2023-11-19T03:57:43;97872.78;;;6.80;67.80
6532;BME280;3299;42.004;24.868;2023-11-19T04:00:09;97868.19;;;6.71;68.72
6532;BME280;3299;42.004;24.868;2023-11-19T04:02:39;97896.56;;;6.84;67.55
6532;BME280;3299;42.004;24.868;2023-11-19T04:05:05;97937.56;;;7.13;67.53
6532;BME280;3299;42.004;24.868;2023-11-19T04:07:32;97889.47;;;6.87;67.87
6532;BME280;3299;42.004;24.868;2023-11-19T04:09:57;97912.03;;;7.10;67.99
6532;BME280;3299;42.004;24.868;2023-11-19T04:12:23;97843.16;;;6.61;67.76
6532;BME280;3299;42.004;24.868;2023-11-19T04:14:48;97862.16;;;6.58;67.97
6532;BME280;3299;42.004;24.868;2023-11-19T04:17:14;97943.00;;;6.95;67.78
6532;BME280;3299;42.004;24.868;2023-11-19T04:19:39;97862.00;;;6.61;67.76
6532;BME280;3299;42.004;24.868;2023-11-19T04:22:07;97923.16;;;6.97;67.75
6532;BME280;3299;42.004;24.868;2023-11-19T04:24:33;97917.94;;;6.98;67.79
6532;BME280;3299;42.004;24.868;2023-11-19T04:26:58;97897.41;;;6.84;67.28
6532;BME280;3299;42.004;24.868;2023-11-19T04:29:24;97855.38;;;6.57;66.69
6532;BME280;3299;42.004;24.868;2023-11-19T04:31:50;97871.66;;;6.58;67.05
6532;BME280;3299;42.004;24.868;2023-11-19T04:34:15;97888.75;;;6.71;66.67
6532;BME280;3299;42.004;24.868;2023-11-19T04:36:41;97856.31;;;6.56;67.02
6532;BME280;3299;42.004;24.868;2023-11-19T04:39:06;97969.88;;;7.17;67.08
6532;BME280;3299;42.004;24.868;2023-11-19T04:41:35;97950.06;;;7.05;66.10
6532;BME280;3299;42.004;24.868;2023-11-19T04:44:01;97958.03;;;7.15;66.01
6532;BME280;3299;42.004;24.868;2023-11-19T04:46:27;97942.16;;;7.08;66.23
6532;BME280;3299;42.004;24.868;2023-11-19T04:48:52;97940.66;;;7.18;65.82
6532;BME280;3299;42.004;24.868;2023-11-19T04:51:18;97945.13;;;7.02;65.55
6532;BME280;3299;42.004;24.868;2023-11-19T04:53:43;97885.47;;;6.69;65.85
6532;BME280;3299;42.004;24.868;2023-11-19T04:56:10;97969.63;;;7.08;65.91
6532;BME280;3299;42.004;24.868;2023-11-19T04:58:35;97985.94;;;7.21;66.03
6532;BME280;3299;42.004;24.868;2023-11-19T05:01:03;97964.94;;;7.00;66.13
6532;BME280;3299;42.004;24.868;2023-11-19T05:03:29;97980.13;;;7.05;65.75
6532;BME280;3299;42.004;24.868;2023-11-19T05:05:54;97913.66;;;6.71;65.92
6532;BME280;3299;42.004;24.868;2023-11-19T05:08:20;97950.47;;;6.85;66.73
6532;BME280;3299;42.004;24.868;2023-11-19T05:10:45;97963.13;;;6.88;66.08
6532;BME280;3299;42.004;24.868;2023-11-19T05:13:11;98019.94;;;7.26;66.11
6532;BME280;3299;42.004;24.868;2023-11-19T05:15:37;98002.50;;;7.03;66.59
6532;BME280;3299;42.004;24.868;2023-11-19T05:18:03;97994.72;;;7.04;66.43
6532;BME280;3299;42.004;24.868;2023-11-19T05:20:30;98045.94;;;7.35;65.42
6532;BME280;3299;42.004;24.868;2023-11-19T05:22:55;98028.50;;;7.26;65.65
6532;BME280;3299;42.004;24.868;2023-11-19T05:25:20;97950.56;;;6.70;65.86
6532;BME280;3299;42.004;24.868;2023-11-19T05:27:46;97983.13;;;6.83;65.68
6532;BME280;3299;42.004;24.868;2023-11-19T05:30:11;98005.03;;;6.90;66.15
6532;BME280;3299;42.004;24.868;2023-11-19T05:32:39;98042.66;;;7.19;65.67
6532;BME280;3299;42.004;24.868;2023-11-19T05:35:05;97957.53;;;6.68;65.41
6532;BME280;3299;42.004;24.868;2023-11-19T05:37:30;98000.94;;;7.00;65.44
6532;BME280;3299;42.004;24.868;2023-11-19T05:39:56;97972.72;;;6.72;64.75
6532;BME280;3299;42.004;24.868;2023-11-19T05:42:21;98002.44;;;6.90;64.52
6532;BME280;3299;42.004;24.868;2023-11-19T05:44:47;97970.13;;;6.72;64.89
6532;BME280;3299;42.004;24.868;2023-11-19T05:47:12;97970.50;;;6.66;65.15
6532;BME280;3299;42.004;24.868;2023-11-19T05:49:38;98047.81;;;7.05;65.30
6532;BME280;3299;42.004;24.868;2023-11-19T05:52:04;98047.16;;;7.02;65.45
6532;BME280;3299;42.004;24.868;2023-11-19T05:54:32;98012.53;;;6.65;65.39
6532;BME280;3299;42.004;24.868;2023-11-19T05:57:06;98014.66;;;6.73;65.37
6532;BME280;3299;42.004;24.868;2023-11-19T05:59:34;98045.03;;;6.94;65.45
6532;BME280;3299;42.004;24.868;2023-11-19T06:02:01;97992.72;;;6.67;65.51
6532;BME280;3299;42.004;24.868;2023-11-19T06:04:27;98076.00;;;7.07;65.53
6532;BME280;3299;42.004;24.868;2023-11-19T06:06:52;97976.63;;;6.50;65.50
6532;BME280;3299;42.004;24.868;2023-11-19T06:09:20;98061.22;;;7.10;66.01
6532;BME280;3299;42.004;24.868;2023-11-19T06:11:46;97981.41;;;6.56;65.65
6532;BME280;3299;42.004;24.868;2023-11-19T06:14:12;98070.22;;;7.03;66.33
6532;BME280;3299;42.004;24.868;2023-11-19T06:16:37;98068.56;;;7.02;65.92
6532;BME280;3299;42.004;24.868;2023-11-19T06:19:05;98073.53;;;7.05;65.52
6532;BME280;3299;42.004;24.868;2023-11-19T06:21:30;98039.91;;;6.80;65.45
6532;BME280;3299;42.004;24.868;2023-11-19T06:23:56;98068.22;;;7.08;64.90
6532;BME280;3299;42.004;24.868;2023-11-19T06:26:21;98081.81;;;7.24;64.47
6532;BME280;3299;42.004;24.868;2023-11-19T06:28:47;98092.81;;;7.26;64.62
6532;BME280;3299;42.004;24.868;2023-11-19T06:31:12;98009.78;;;6.82;64.09
6532;BME280;3299;42.004;24.868;2023-11-19T06:33:41;98056.28;;;7.07;63.67
6532;BME280;3299;42.004;24.868;2023-11-19T06:36:07;98118.38;;;7.43;63.71
6532;BME280;3299;42.004;24.868;2023-11-19T06:38:34;98060.50;;;7.08;63.45
6532;BME280;3299;42.004;24.868;2023-11-19T06:41:00;98123.22;;;7.48;63.14
6532;BME280;3299;42.004;24.868;2023-11-19T06:43:26;98043.41;;;7.07;63.30
6532;BME280;3299;42.004;24.868;2023-11-19T06:45:53;98130.28;;;7.58;63.32
6532;BME280;3299;42.004;24.868;2023-11-19T06:48:22;98131.31;;;7.56;62.81
6532;BME280;3299;42.004;24.868;2023-11-19T06:50:47;98111.47;;;7.44;62.51
6532;BME280;3299;42.004;24.868;2023-11-19T06:53:12;98057.28;;;7.73;61.53
6532;BME280;3299;42.004;24.868;2023-11-19T06:55:38;98121.09;;;8.74;59.81
6532;BME280;3299;42.004;24.868;2023-11-19T06:58:03;98057.97;;;8.92;56.14
6532;BME280;3299;42.004;24.868;2023-11-19T07:00:29;98066.28;;;9.46;55.13
6532;BME280;3299;42.004;24.868;2023-11-19T07:02:56;98088.06;;;9.54;54.66
6532;BME280;3299;42.004;24.868;2023-11-19T07:05:22;98114.13;;;9.51;54.93
6532;BME280;3299;42.004;24.868;2023-11-19T07:07:49;98133.13;;;9.38;55.07
6532;BME280;3299;42.004;24.868;2023-11-19T07:10:14;98075.44;;;8.76;55.90
6532;BME280;3299;42.004;24.868;2023-11-19T07:12:40;98058.59;;;8.58;55.94
6532;BME280;3299;42.004;24.868;2023-11-19T07:15:07;98149.00;;;9.07;56.51
6532;BME280;3299;42.004;24.868;2023-11-19T07:17:34;98062.47;;;8.51;56.37
6532;BME280;3299;42.004;24.868;2023-11-19T07:20:00;98095.09;;;8.65;56.46
6532;BME280;3299;42.004;24.868;2023-11-19T07:22:26;98103.94;;;8.61;56.34
6532;BME280;3299;42.004;24.868;2023-11-19T07:24:52;98145.75;;;8.66;56.57
6532;BME280;3299;42.004;24.868;2023-11-19T07:27:18;98063.69;;;8.07;56.80
6532;BME280;3299;42.004;24.868;2023-11-19T07:29:44;98163.91;;;8.64;56.72
6532;BME280;3299;42.004;24.868;2023-11-19T07:32:10;98138.72;;;8.29;57.16
6532;BME280;3299;42.004;24.868;2023-11-19T07:34:36;98160.44;;;8.51;57.59
6532;BME280;3299;42.004;24.868;2023-11-19T07:37:01;98113.25;;;8.24;56.85
6532;BME280;3299;42.004;24.868;2023-11-19T07:39:28;98082.19;;;7.99;57.08
6532;BME280;3299;42.004;24.868;2023-11-19T07:41:54;98082.50;;;7.95;57.38
6532;BME280;3299;42.004;24.868;2023-11-19T07:44:20;98142.66;;;8.34;57.46
6532;BME280;3299;42.004;24.868;2023-11-19T07:46:46;98160.66;;;8.48;58.22
6532;BME280;3299;42.004;24.868;2023-11-19T07:49:13;98097.25;;;8.05;57.49
6532;BME280;3299;42.004;24.868;2023-11-19T07:51:38;98097.22;;;8.19;57.37
6532;BME280;3299;42.004;24.868;2023-11-19T07:54:04;98163.78;;;8.53;56.57
6532;BME280;3299;42.004;24.868;2023-11-19T07:56:30;98126.09;;;8.38;56.46
6532;BME280;3299;42.004;24.868;2023-11-19T07:58:55;98165.97;;;8.59;57.03
6532;BME280;3299;42.004;24.868;2023-11-19T08:01:21;98191.50;;;8.76;56.93
6532;BME280;3299;42.004;24.868;2023-11-19T08:03:48;98192.59;;;8.72;56.37
6532;BME280;3299;42.004;24.868;2023-11-19T08:06:14;98119.34;;;8.23;56.16
6532;BME280;3299;42.004;24.868;2023-11-19T08:08:39;98167.91;;;8.56;56.37
6532;BME280;3299;42.004;24.868;2023-11-19T08:11:05;98136.06;;;8.30;56.75
6532;BME280;3299;42.004;24.868;2023-11-19T08:13:30;98163.78;;;8.53;56.91
6532;BME280;3299;42.004;24.868;2023-11-19T08:15:57;98197.56;;;8.75;56.18
6532;BME280;3299;42.004;24.868;2023-11-19T08:18:23;98151.91;;;8.51;56.37
6532;BME280;3299;42.004;24.868;2023-11-19T08:20:49;98127.00;;;8.37;56.12
6532;BME280;3299;42.004;24.868;2023-11-19T08:23:18;98165.56;;;8.65;56.28
6532;BME280;3299;42.004;24.868;2023-11-19T08:25:43;98136.13;;;8.55;55.79
6532;BME280;3299;42.004;24.868;2023-11-19T08:28:09;98211.78;;;9.07;55.69
6532;BME280;3299;42.004;24.868;2023-11-19T08:30:35;98140.31;;;8.70;55.87
6532;BME280;3299;42.004;24.868;2023-11-19T08:33:00;98166.72;;;8.86;56.06
6532;BME280;3299;42.004;24.868;2023-11-19T08:35:31;98122.13;;;8.59;55.86
6532;BME280;3299;42.004;24.868;2023-11-19T08:37:56;98104.34;;;8.42;56.58
6532;BME280;3299;42.004;24.868;2023-11-19T08:40:22;98201.44;;;8.95;55.81
6532;BME280;3299;42.004;24.868;2023-11-19T08:42:48;98130.69;;;8.33;55.91
6532;BME280;3299;42.004;24.868;2023-11-19T08:45:13;98158.41;;;8.56;56.63
6532;BME280;3299;42.004;24.868;2023-11-19T08:47:38;98142.84;;;8.58;55.19
6532;BME280;3299;42.004;24.868;2023-11-19T08:50:06;98233.91;;;9.11;54.91
6532;BME280;3299;42.004;24.868;2023-11-19T08:52:31;98162.41;;;8.87;54.62
6532;BME280;3299;42.004;24.868;2023-11-19T08:54:57;98182.84;;;8.90;54.87
6532;BME280;3299;42.004;24.868;2023-11-19T08:57:22;98182.75;;;8.79;55.11
6532;BME280;3299;42.004;24.868;2023-11-19T08:59:47;98145.06;;;8.76;54.51
6532;BME280;3299;42.004;24.868;2023-11-19T09:02:13;98245.59;;;9.29;54.67
6532;BME280;3299;42.004;24.868;2023-11-19T09:04:38;98257.03;;;9.25;54.45
6532;BME280;3299;42.004;24.868;2023-11-19T09:07:04;98171.97;;;8.72;54.60
6532;BME280;3299;42.004;24.868;2023-11-19T09:09:29;98231.72;;;9.05;55.40
6532;BME280;3299;42.004;24.868;2023-11-19T09:11:55;98234.69;;;9.12;54.91
6532;BME280;3299;42.004;24.868;2023-11-19T09:14:21;98144.00;;;8.66;54.98
6532;BME280;3299;42.004;24.868;2023-11-19T09:16:51;98202.03;;;8.98;55.12
6532;BME280;3299;42.004;24.868;2023-11-19T09:19:16;98184.25;;;9.08;54.47
6532;BME280;3299;42.004;24.868;2023-11-19T09:21:43;98234.63;;;9.38;54.90
6532;BME280;3299;42.004;24.868;2023-11-19T09:24:09;98221.50;;;9.29;53.88
6532;BME280;3299;42.004;24.868;2023-11-19T09:26:34;98197.75;;;9.24;53.83
6532;BME280;3299;42.004;24.868;2023-11-19T09:29:01;98230.81;;;9.31;53.21
6532;BME280;3299;42.004;24.868;2023-11-19T09:31:27;98234.84;;;9.35;53.24
6532;BME280;3299;42.004;24.868;2023-11-19T09:33:52;98168.00;;;8.93;53.83
6532;BME280;3299;42.004;24.868;2023-11-19T09:36:17;98220.09;;;9.37;53.38
6532;BME280;3299;42.004;24.868;2023-11-19T09:38:44;98162.13;;;9.04;53.22
6532;BME280;3299;42.004;24.868;2023-11-19T09:41:10;98166.03;;;9.09;53.47
6532;BME280;3299;42.004;24.868;2023-11-19T09:43:42;98171.53;;;9.17;53.83
6532;BME280;3299;42.004;24.868;2023-11-19T09:46:10;98193.34;;;9.51;53.84
6532;BME280;3299;42.004;24.868;2023-11-19T09:48:39;98195.00;;;9.64;53.73
6532;BME280;3299;42.004;24.868;2023-11-19T09:51:11;98141.81;;;9.37;53.03
6532;BME280;3299;42.004;24.868;2023-11-19T09:53:37;98126.75;;;9.31;53.17
6532;BME280;3299;42.004;24.868;2023-11-19T09:56:04;98159.16;;;9.35;52.75
6532;BME280;3299;42.004;24.868;2023-11-19T09:58:30;98141.81;;;9.24;52.54
6532;BME280;3299;42.004;24.868;2023-11-19T10:00:57;98181.25;;;9.51;52.41
6532;BME280;3299;42.004;24.868;2023-11-19T10:03:32;98132.81;;;9.17;52.50
6532;BME280;3299;42.004;24.868;2023-11-19T10:05:58;98215.13;;;9.72;52.70
6532;BME280;3299;42.004;24.868;2023-11-19T10:08:24;98147.06;;;9.35;52.43
6532;BME280;3299;42.004;24.868;2023-11-19T10:10:50;98131.25;;;9.27;52.27
6532;BME280;3299;42.004;24.868;2023-11-19T10:13:17;98194.38;;;9.61;52.44
6532;BME280;3299;42.004;24.868;2023-11-19T10:15:43;98095.66;;;9.07;52.63
6532;BME280;3299;42.004;24.868;2023-11-19T10:18:09;98139.00;;;9.40;52.46
6532;BME280;3299;42.004;24.868;2023-11-19T10:20:38;98092.56;;;9.02;52.84
6532;BME280;3299;42.004;24.868;2023-11-19T10:23:05;98193.00;;;9.55;53.06
6532;BME280;3299;42.004;24.868;2023-11-19T10:25:32;98114.03;;;9.28;53.22
6532;BME280;3299;42.004;24.868;2023-11-19T10:27:58;98125.78;;;9.44;52.98
6532;BME280;3299;42.004;24.868;2023-11-19T10:30:28;98147.38;;;9.56;52.46
6532;BME280;3299;42.004;24.868;2023-11-19T10:35:36;98163.44;;;9.84;52.11
6532;BME280;3299;42.004;24.868;2023-11-19T10:38:15;98167.16;;;10.05;51.85
6532;BME280;3299;42.004;24.868;2023-11-19T10:40:41;98186.72;;;10.20;51.25
6532;BME280;3299;42.004;24.868;2023-11-19T10:43:06;98180.69;;;10.32;51.33
6532;BME280;3299;42.004;24.868;2023-11-19T10:45:36;98157.97;;;10.48;50.55
6532;BME280;3299;42.004;24.868;2023-11-19T10:48:03;98074.34;;;10.13;50.43
6532;BME280;3299;42.004;24.868;2023-11-19T10:50:35;98144.09;;;10.72;49.98
6532;BME280;3299;42.004;24.868;2023-11-19T10:53:02;98087.94;;;10.51;49.88
6532;BME280;3299;42.004;24.868;2023-11-19T10:55:33;98049.78;;;10.42;49.05
6532;BME280;3299;42.004;24.868;2023-11-19T10:58:04;98071.50;;;10.63;48.98
6532;BME280;3299;42.004;24.868;2023-11-19T11:03:17;98138.41;;;11.02;48.63
6532;BME280;3299;42.004;24.868;2023-11-19T11:05:42;98120.25;;;10.80;48.95
6532;BME280;3299;42.004;24.868;2023-11-19T11:08:09;98106.56;;;10.78;49.62
6532;BME280;3299;42.004;24.868;2023-11-19T11:10:39;98110.38;;;10.96;48.79
6532;BME280;3299;42.004;24.868;2023-11-19T11:13:07;98145.88;;;11.17;48.44
6532;BME280;3299;42.004;24.868;2023-11-19T11:15:34;98106.50;;;10.90;48.59
6532;BME280;3299;42.004;24.868;2023-11-19T11:18:01;98088.84;;;10.84;48.51
6532;BME280;3299;42.004;24.868;2023-11-19T11:20:29;98104.41;;;10.95;48.39
6532;BME280;3299;42.004;24.868;2023-11-19T11:23:03;98160.34;;;11.31;48.58
6532;BME280;3299;42.004;24.868;2023-11-19T11:25:47;98146.00;;;11.27;48.03
6532;BME280;3299;42.004;24.868;2023-11-19T11:31:08;98129.63;;;11.26;48.45
6532;BME280;3299;42.004;24.868;2023-11-19T11:36:25;98118.44;;;11.48;48.12
6532;BME280;3299;42.004;24.868;2023-11-19T11:38:52;98059.38;;;11.20;48.00
6532;BME280;3299;42.004;24.868;2023-11-19T11:41:19;98111.50;;;11.48;47.60
6532;BME280;3299;42.004;24.868;2023-11-19T11:43:51;98094.06;;;11.39;47.25
6532;BME280;3299;42.004;24.868;2023-11-19T11:49:16;98008.03;;;10.92;47.66
6532;BME280;3299;42.004;24.868;2023-11-19T11:57:10;98083.97;;;11.36;47.78
6532;BME280;3299;42.004;24.868;2023-11-19T11:59:42;98088.09;;;11.39;47.54
6532;BME280;3299;42.004;24.868;2023-11-19T12:02:09;98071.59;;;11.29;47.77
6532;BME280;3299;42.004;24.868;2023-11-19T12:04:36;98082.78;;;11.29;48.33
6532;BME280;3299;42.004;24.868;2023-11-19T12:07:15;98085.00;;;11.34;48.37
6532;BME280;3299;42.004;24.868;2023-11-19T12:09:41;98016.03;;;10.89;48.30
6532;BME280;3299;42.004;24.868;2023-11-19T12:12:20;98069.13;;;11.27;48.02
6532;BME280;3299;42.004;24.868;2023-11-19T12:17:47;98036.84;;;10.98;48.02
6532;BME280;3299;42.004;24.868;2023-11-19T12:20:18;98009.91;;;10.79;48.34
6532;BME280;3299;42.004;24.868;2023-11-19T12:22:45;98067.13;;;11.09;48.31
6532;BME280;3299;42.004;24.868;2023-11-19T12:25:12;98040.25;;;10.77;48.84
6532;BME280;3299;42.004;24.868;2023-11-19T12:27:43;97998.47;;;10.59;49.31
6532;BME280;3299;42.004;24.868;2023-11-19T12:30:09;97992.09;;;10.52;48.96
6532;BME280;3299;42.004;24.868;2023-11-19T12:32:41;98051.56;;;10.98;48.92
6532;BME280;3299;42.004;24.868;2023-11-19T12:35:12;98021.53;;;10.73;48.88
6532;BME280;3299;42.004;24.868;2023-11-19T12:40:19;98042.63;;;10.91;49.54
6532;BME280;3299;42.004;24.868;2023-11-19T12:42:48;98048.41;;;10.94;49.48
6532;BME280;3299;42.004;24.868;2023-11-19T12:45:14;97958.22;;;10.44;49.58
6532;BME280;3299;42.004;24.868;2023-11-19T12:47:42;98002.34;;;10.65;49.48
6532;BME280;3299;42.004;24.868;2023-11-19T12:50:08;98035.91;;;10.77;50.23
6532;BME280;3299;42.004;24.868;2023-11-19T12:52:37;98034.13;;;10.78;50.77
6532;BME280;3299;42.004;24.868;2023-11-19T12:57:47;97984.81;;;10.57;49.66
6532;BME280;3299;42.004;24.868;2023-11-19T13:00:20;98022.59;;;10.82;50.66
6532;BME280;3299;42.004;24.868;2023-11-19T13:02:53;98027.69;;;10.83;50.85
6532;BME280;3299;42.004;24.868;2023-11-19T13:05:29;97989.19;;;10.57;50.88
6532;BME280;3299;42.004;24.868;2023-11-19T13:08:06;98021.44;;;10.75;50.56
6532;BME280;3299;42.004;24.868;2023-11-19T13:10:51;98023.31;;;10.73;51.04
6532;BME280;3299;42.004;24.868;2023-11-19T13:13:17;98023.41;;;10.71;52.21
6532;BME280;3299;42.004;24.868;2023-11-19T13:15:43;97981.84;;;10.40;51.69
6532;BME280;3299;42.004;24.868;2023-11-19T13:18:10;98019.16;;;10.59;51.23
6532;BME280;3299;42.004;24.868;2023-11-19T13:20:36;97922.19;;;10.08;51.43
6532;BME280;3299;42.004;24.868;2023-11-19T13:23:03;97934.31;;;10.19;51.41
6532;BME280;3299;42.004;24.868;2023-11-19T13:25:29;97963.47;;;10.32;51.82
6532;BME280;3299;42.004;24.868;2023-11-19T13:27:55;97907.66;;;9.95;51.77
6532;BME280;3299;42.004;24.868;2023-11-19T13:30:21;97960.50;;;10.14;52.57
6532;BME280;3299;42.004;24.868;2023-11-19T13:32:48;97977.59;;;10.28;51.96
6532;BME280;3299;42.004;24.868;2023-11-19T13:35:14;97962.06;;;10.17;52.58
6532;BME280;3299;42.004;24.868;2023-11-19T13:37:40;97996.44;;;10.41;52.09
6532;BME280;3299;42.004;24.868;2023-11-19T13:40:07;97946.53;;;10.17;52.11
6532;BME280;3299;42.004;24.868;2023-11-19T13:42:33;97950.28;;;10.13;52.36
6532;BME280;3299;42.004;24.868;2023-11-19T13:44:58;97978.88;;;10.33;52.90
6532;BME280;3299;42.004;24.868;2023-11-19T13:47:24;97909.50;;;9.82;53.31